Potomac — WBF7534 — position and weather

sailwx.info

Track history (hours):
 
Tides and Currents Weather Stations Pressure Air Temp Water Temp Dewpoint Dewpoint Depression Visibility Wind Speed Wind Dir Waves Ship Positions

Potomac

Owner: POTOMAC ASSOCIATION, OAKLAND, CA. More information available from US FCC via Universal Licensing System and Coast Guard Vessel Documentation Center.

Last reported at 2017-Dec-11 03:12 UTC. Time now 2017-Dec-15 02:43 UTC.
Position N 37°48' W 122°17'.

Length 51 m; draft 3.1 m.

MMSI: 367166810.

Date/timePositionNaut miles runAvg speedWind from/ knotsBaromVisibWave heightAir tempDewpointWater temp
2017-Dec-11 03:12N 37°48' W 122°17'0 0.8
2017-Dec-11 03:00N 37°48' W 122°17'2 3.4
2017-Dec-11 02:30N 37°47' W 122°15'2 3.5
2017-Dec-11 02:00N 37°48' W 122°17'0 0.0
2017-Dec-11 01:30N 37°48' W 122°17'0 0.3
2017-Dec-11 01:00N 37°48' W 122°17'1 2.2
2017-Dec-11 00:30N 37°47' W 122°16'1 2.5
2017-Dec-11 00:00N 37°48' W 122°17'0 0.0
2017-Dec-10 23:29N 37°48' W 122°17'0 0.0
2017-Dec-09 00:06N 37°48' W 122°17'0 0.8
2017-Dec-09 00:00N 37°48' W 122°17'5 9.7
2017-Dec-08 23:30N 37°47' W 122°23'4 8.8
2017-Dec-08 23:00N 37°49' W 122°28'3 6.8
2017-Dec-08 22:30N 37°52' W 122°29'4 7.7
2017-Dec-08 22:00N 37°50' W 122°25'5 9.2
2017-Dec-08 21:30N 37°48' W 122°20'2 4.7
2017-Dec-08 20:59N 37°48' W 122°17'0 0.0
2017-Dec-08 20:29N 37°48' W 122°17'0 0.0
2017-Dec-08 19:59N 37°48' W 122°17'  
2017-Dec-04 03:02N 37°48' W 122°17'0 0.0
2017-Dec-04 03:00N 37°48' W 122°17'2 3.6
2017-Dec-04 02:30N 37°47' W 122°15'2 3.6
2017-Dec-04 02:00N 37°48' W 122°17'0 0.0
2017-Dec-04 01:30N 37°48' W 122°17'0 0.0
2017-Dec-04 01:00N 37°48' W 122°17'1 3.0
2017-Dec-04 00:30N 37°47' W 122°15'1 2.7
2017-Dec-03 23:58N 37°48' W 122°17'0 0.0
2017-Dec-03 23:28N 37°48' W 122°17'  
Track history (hours):
 
Tides and Currents Weather Stations Pressure Air Temp Water Temp Dewpoint Dewpoint Depression Visibility Wind Speed Wind Dir Waves Ship Positions

Potomac

Owner: POTOMAC ASSOCIATION, OAKLAND, CA. More information available from US FCC via Universal Licensing System and Coast Guard Vessel Documentation Center.

Last reported at 2017-Dec-11 03:12 UTC. Time now 2017-Dec-15 02:43 UTC.
Position N 37°48' W 122°17'.

Length 51 m; draft 3.1 m.

MMSI: 367166810.

Date/timePositionNaut miles runAvg speedWind from/ knotsBaromVisibWave heightAir tempDewpointWater temp
2017-Dec-11 03:12N 37°48' W 122°17'0 0.8
2017-Dec-11 03:00N 37°48' W 122°17'2 3.4
2017-Dec-11 02:30N 37°47' W 122°15'2 3.5
2017-Dec-11 02:00N 37°48' W 122°17'0 0.0
2017-Dec-11 01:30N 37°48' W 122°17'0 0.3
2017-Dec-11 01:00N 37°48' W 122°17'1 2.2
2017-Dec-11 00:30N 37°47' W 122°16'1 2.5
2017-Dec-11 00:00N 37°48' W 122°17'0 0.0
2017-Dec-10 23:29N 37°48' W 122°17'0 0.0
2017-Dec-09 00:06N 37°48' W 122°17'0 0.8
2017-Dec-09 00:00N 37°48' W 122°17'5 9.7
2017-Dec-08 23:30N 37°47' W 122°23'4 8.8
2017-Dec-08 23:00N 37°49' W 122°28'3 6.8
2017-Dec-08 22:30N 37°52' W 122°29'4 7.7
2017-Dec-08 22:00N 37°50' W 122°25'5 9.2
2017-Dec-08 21:30N 37°48' W 122°20'2 4.7
2017-Dec-08 20:59N 37°48' W 122°17'0 0.0
2017-Dec-08 20:29N 37°48' W 122°17'0 0.0
2017-Dec-08 19:59N 37°48' W 122°17'  
2017-Dec-04 03:02N 37°48' W 122°17'0 0.0
2017-Dec-04 03:00N 37°48' W 122°17'2 3.6
2017-Dec-04 02:30N 37°47' W 122°15'2 3.6
2017-Dec-04 02:00N 37°48' W 122°17'0 0.0
2017-Dec-04 01:30N 37°48' W 122°17'0 0.0
2017-Dec-04 01:00N 37°48' W 122°17'1 3.0
2017-Dec-04 00:30N 37°47' W 122°15'1 2.7
2017-Dec-03 23:58N 37°48' W 122°17'0 0.0
2017-Dec-03 23:28N 37°48' W 122°17'  

Dump ship's entire track history